Time;durP1;ratioP1;P1;durP2;ratioP2;P2;SDS_P1;SDS_P2;PMS_P1;PMS_P2;Temp;Humidity;BMP_temperature;BMP_pressure;BME280_temperature;BME280_humidity;BME280_pressure;Samples;Min_cycle;Max_cycle;Signal;HPM_P1;HPM_P2
2023/10/03 00:00:44;;;;;;;45.28;22.27;;;;;;;19.54;69.79;100964.69;5093289;28;20028;-68
2023/10/03 00:03:11;;;;;;;45.55;21.88;;;;;;;19.56;69.56;100956.72;5108933;28;20110;-68
2023/10/03 00:05:38;;;;;;;43.25;22.85;;;;;;;19.50;69.74;100944.75;5093319;28;20147;-68
2023/10/03 00:08:04;;;;;;;44.47;22.23;;;;;;;19.50;69.73;100943.91;5092983;28;20041;-68
2023/10/03 00:10:32;;;;;;;42.97;21.92;;;;;;;19.53;69.51;100937.63;5092529;28;20069;-68
2023/10/03 00:12:59;;;;;;;43.53;20.63;;;;;;;19.52;69.63;100933.16;5091919;28;20096;-68
2023/10/03 00:15:25;;;;;;;42.85;21.98;;;;;;;19.51;69.75;100935.16;5092333;28;20028;-68
2023/10/03 00:17:55;;;;;;;40.97;21.40;;;;;;;19.47;69.78;100917.22;5093063;28;20024;-68
2023/10/03 00:20:22;;;;;;;42.47;21.15;;;;;;;19.49;69.80;100914.06;5095024;28;20020;-68
2023/10/03 00:22:49;;;;;;;43.58;22.40;;;;;;;19.45;69.84;100924.28;5092740;28;20390;-68
2023/10/03 00:25:24;;;;;;;38.85;20.65;;;;;;;19.45;69.98;100918.66;5092580;28;20097;-68
2023/10/03 00:27:59;;;;;;;46.22;22.33;;;;;;;19.45;69.94;100910.22;5091994;28;20038;-68
2023/10/03 00:30:25;;;;;;;45.70;23.20;;;;;;;19.44;70.00;100920.66;5091713;28;20031;-68
2023/10/03 00:32:52;;;;;;;42.30;22.17;;;;;;;19.41;69.94;100914.81;5092493;28;20039;-68
2023/10/03 00:35:21;;;;;;;43.33;21.80;;;;;;;19.40;70.09;100910.31;5093707;28;20506;-68
2023/10/03 00:37:50;;;;;;;41.88;21.92;;;;;;;19.40;70.05;100893.44;5095535;28;20039;-68
2023/10/03 00:42:59;;;;;;;44.75;22.02;;;;;;;19.44;69.94;100891.66;5092099;28;20092;-68
2023/10/03 00:45:29;;;;;;;41.72;21.85;;;;;;;19.45;70.00;100885.72;5107194;28;20106;-69
2023/10/03 00:47:58;;;;;;;42.22;21.45;;;;;;;19.44;69.82;100869.16;5112138;28;20126;-68
2023/10/03 00:50:28;;;;;;;45.28;22.15;;;;;;;19.45;69.73;100865.19;5099084;28;20761;-68
2023/10/03 00:53:04;;;;;;;42.75;20.63;;;;;;;19.43;69.97;100862.69;5112766;28;20058;-68
2023/10/03 00:55:33;;;;;;;46.05;21.75;;;;;;;19.48;69.66;100856.13;5095534;28;20056;-68
2023/10/03 01:00:43;;;;;;;42.15;21.17;;;;;;;19.47;69.63;100846.00;5091841;28;20074;-68
2023/10/03 01:03:30;;;;;;;41.30;21.40;;;;;;;19.45;69.80;100839.84;5091601;28;20034;-68
2023/10/03 01:05:58;;;;;;;42.60;22.20;;;;;;;19.41;69.70;100824.72;5092460;28;20115;-69
2023/10/03 01:08:24;;;;;;;42.10;21.45;;;;;;;19.38;69.77;100826.22;5092099;28;20379;-68
2023/10/03 01:10:51;;;;;;;43.50;21.65;;;;;;;19.39;70.00;100813.78;5094477;28;20038;-68
2023/10/03 01:13:16;;;;;;;42.13;21.60;;;;;;;19.38;69.90;100812.13;5093638;28;20470;-68
2023/10/03 01:15:43;;;;;;;43.30;21.80;;;;;;;19.38;69.79;100798.91;5097884;28;20028;-68
2023/10/03 01:18:12;;;;;;;41.63;21.13;;;;;;;19.35;69.97;100809.94;5110570;28;20486;-68
2023/10/03 01:20:40;;;;;;;42.90;21.83;;;;;;;19.37;69.75;100802.88;5112371;28;20439;-68
2023/10/03 01:23:10;;;;;;;39.95;21.38;;;;;;;19.40;69.43;100804.19;5102385;28;20363;-68
2023/10/03 01:25:42;;;;;;;45.13;21.60;;;;;;;19.35;69.71;100801.50;5091839;28;20020;-68
2023/10/03 01:28:08;;;;;;;39.80;20.42;;;;;;;19.36;69.85;100798.34;5103439;28;20091;-68
2023/10/03 01:30:33;;;;;;;45.15;22.25;;;;;;;19.35;69.93;100793.06;5110098;28;20149;-68
2023/10/03 01:33:00;;;;;;;42.97;21.40;;;;;;;19.37;69.63;100799.19;5094906;28;20103;-68
2023/10/03 01:35:25;;;;;;;41.90;21.98;;;;;;;19.37;69.67;100793.56;5111012;28;20441;-68
2023/10/03 01:37:51;;;;;;;40.08;20.13;;;;;;;19.38;69.50;100787.63;5107950;28;20137;-69
2023/10/03 01:40:17;;;;;;;40.28;20.98;;;;;;;19.36;69.57;100786.28;5091327;28;20032;-68
2023/10/03 01:42:47;;;;;;;40.55;21.13;;;;;;;19.33;69.71;100778.44;5094916;28;20033;-68
2023/10/03 01:45:19;;;;;;;41.28;20.90;;;;;;;19.37;69.47;100777.53;5090884;28;20081;-68
2023/10/03 01:47:47;;;;;;;39.65;19.30;;;;;;;19.40;69.23;100786.47;5096121;28;20437;-68
2023/10/03 01:50:19;;;;;;;37.83;19.38;;;;;;;19.41;69.25;100774.91;5094701;28;20035;-69
2023/10/03 01:52:49;;;;;;;40.03;19.70;;;;;;;19.42;69.11;100775.75;5089840;28;20088;-68
2023/10/03 01:55:17;;;;;;;45.20;19.98;;;;;;;19.44;69.08;100779.91;5091420;28;20470;-69
2023/10/03 01:57:44;;;;;;;35.40;18.17;;;;;;;19.44;68.92;100781.88;5097369;28;20036;-68
2023/10/03 02:03:12;;;;;;;40.70;19.65;;;;;;;19.44;68.26;100777.09;5111749;28;20102;-68
2023/10/03 02:05:38;;;;;;;36.25;18.48;;;;;;;19.49;68.59;100778.94;5110744;28;20035;-68
2023/10/03 02:08:07;;;;;;;38.50;18.90;;;;;;;19.49;68.60;100770.50;5090070;28;20379;-68
2023/10/03 02:10:36;;;;;;;36.05;17.65;;;;;;;19.51;68.31;100771.03;5090161;28;20391;-68
2023/10/03 02:13:09;;;;;;;35.60;18.48;;;;;;;19.50;68.52;100767.41;5090270;28;20035;-68
2023/10/03 02:15:36;;;;;;;35.67;17.75;;;;;;;19.51;68.47;100751.34;5091127;28;20098;-68
2023/10/03 02:18:02;;;;;;;41.35;19.42;;;;;;;19.51;68.36;100771.03;5090903;28;20379;-68
2023/10/03 02:20:38;;;;;;;35.38;18.95;;;;;;;19.51;68.22;100751.34;5092787;28;20426;-69
2023/10/03 02:23:05;;;;;;;39.30;19.65;;;;;;;19.54;68.27;100745.91;5090646;28;20024;-67
2023/10/03 02:25:36;;;;;;;37.00;17.60;;;;;;;19.54;68.21;100729.00;5110405;28;20032;-68
2023/10/03 02:28:02;;;;;;;36.65;18.00;;;;;;;19.52;68.38;100734.13;5107726;28;20024;-68
2023/10/03 02:30:30;;;;;;;36.35;17.35;;;;;;;19.55;68.43;100744.75;5098711;28;20042;-68
2023/10/03 02:32:57;;;;;;;37.35;18.27;;;;;;;19.55;68.21;100760.81;5090748;28;20031;-68
2023/10/03 02:35:24;;;;;;;34.60;17.05;;;;;;;19.54;68.22;100751.53;5089653;28;20043;-68
2023/10/03 02:37:52;;;;;;;34.97;18.05;;;;;;;19.55;68.16;100761.63;5093798;28;20455;-68
2023/10/03 02:43:13;;;;;;;34.67;17.30;;;;;;;19.55;68.13;100743.91;5086757;28;20075;-68
2023/10/03 02:45:39;;;;;;;37.00;17.83;;;;;;;19.57;68.10;100761.31;5092048;28;20043;-69
2023/10/03 02:48:23;;;;;;;39.13;18.95;;;;;;;19.56;68.28;100759.66;5089601;28;20039;-68
2023/10/03 02:50:50;;;;;;;35.42;17.98;;;;;;;19.57;68.22;100770.63;5093097;28;20572;-68
2023/10/03 02:53:21;;;;;;;33.95;17.38;;;;;;;19.57;68.27;100758.50;5090957;28;20364;-68
2023/10/03 02:55:59;;;;;;;33.42;17.90;;;;;;;19.59;68.18;100768.31;5101885;28;20019;-68
2023/10/03 02:58:24;;;;;;;30.38;15.63;;;;;;;19.61;68.22;100776.47;5111195;28;20454;-69
2023/10/03 03:00:53;;;;;;;34.67;17.67;;;;;;;19.57;68.19;100772.56;5105316;28;20059;-68
2023/10/03 03:03:19;;;;;;;32.65;16.15;;;;;;;19.57;68.37;100770.63;5092480;28;20092;-69
2023/10/03 03:05:44;;;;;;;33.95;16.05;;;;;;;19.59;68.40;100767.47;5096188;28;20441;-69
2023/10/03 03:08:22;;;;;;;30.23;15.00;;;;;;;19.59;68.46;100761.84;5105483;28;20134;-68
2023/10/03 03:10:51;;;;;;;28.75;14.90;;;;;;;19.58;69.14;100760.19;5093702;28;20058;-69
2023/10/03 03:13:18;;;;;;;26.30;13.90;;;;;;;19.59;69.34;100756.22;5094501;28;20046;-69
2023/10/03 03:15:51;;;;;;;26.15;13.55;;;;;;;19.60;69.68;100763.50;5093559;28;20108;-69
2023/10/03 03:18:19;;;;;;;23.90;12.65;;;;;;;19.59;69.98;100759.84;5094046;28;20036;-68
2023/10/03 03:20:45;;;;;;;26.33;13.10;;;;;;;19.62;70.16;100766.88;5092759;28;20443;-68
2023/10/03 03:23:15;;;;;;;27.60;12.75;;;;;;;19.60;70.02;100761.50;5104456;28;20036;-68
2023/10/03 03:25:42;;;;;;;26.10;13.23;;;;;;;19.62;69.81;100769.69;5113978;28;20077;-69
2023/10/03 03:28:15;;;;;;;26.67;12.80;;;;;;;19.60;69.72;100758.69;5114281;28;20031;-69
2023/10/03 03:30:55;;;;;;;28.55;14.65;;;;;;;19.64;69.25;100755.28;5099442;28;20063;-69
2023/10/03 03:33:21;;;;;;;30.15;14.98;;;;;;;19.63;69.33;100754.47;5106499;28;20058;-68
2023/10/03 03:35:47;;;;;;;27.20;14.20;;;;;;;19.63;69.21;100762.91;5114499;28;20467;-69
2023/10/03 03:38:18;;;;;;;27.83;13.70;;;;;;;19.61;69.04;100759.56;5096759;28;20028;-68
2023/10/03 03:40:55;;;;;;;26.58;13.68;;;;;;;19.60;69.40;100769.13;5097237;28;20533;-69
2023/10/03 03:43:21;;;;;;;27.15;13.63;;;;;;;19.61;69.39;100748.31;5093383;28;20031;-69
2023/10/03 03:45:47;;;;;;;27.38;12.98;;;;;;;19.61;69.48;100759.56;5112610;28;20023;-69
2023/10/03 03:48:18;;;;;;;26.02;12.93;;;;;;;19.59;69.87;100761.84;5113902;28;20035;-68
2023/10/03 03:50:44;;;;;;;26.67;12.87;;;;;;;19.58;70.02;100761.00;5113175;28;20024;-68
2023/10/03 03:53:10;;;;;;;23.85;11.80;;;;;;;19.61;70.04;100759.56;5095169;28;20118;-68
2023/10/03 03:55:37;;;;;;;22.05;12.32;;;;;;;19.59;70.46;100767.47;5093433;28;20558;-68
2023/10/03 03:58:05;;;;;;;25.35;11.70;;;;;;;19.59;70.57;100767.47;5092816;28;20074;-68
2023/10/03 04:00:32;;;;;;;21.17;10.88;;;;;;;19.57;70.69;100781.03;5102333;28;20039;-68
2023/10/03 04:03:00;;;;;;;22.83;11.27;;;;;;;19.58;71.05;100779.91;5101250;28;20081;-68
2023/10/03 04:05:28;;;;;;;21.27;10.57;;;;;;;19.58;71.21;100780.72;5092440;28;20054;-68
2023/10/03 04:07:54;;;;;;;23.95;11.48;;;;;;;19.58;71.16;100777.91;5092724;28;20035;-68
2023/10/03 04:10:21;;;;;;;20.58;9.82;;;;;;;19.58;71.40;100779.91;5092999;28;20028;-68
2023/10/03 04:12:48;;;;;;;18.40;9.93;;;;;;;19.60;71.21;100791.66;5092183;28;20519;-68
2023/10/03 04:15:18;;;;;;;19.08;9.77;;;;;;;19.58;71.43;100794.81;5092461;28;20042;-68
2023/10/03 04:17:48;;;;;;;20.50;10.07;;;;;;;19.58;71.40;100793.97;5092039;28;20065;-68
2023/10/03 04:22:54;;;;;;;17.95;9.68;;;;;;;19.61;71.39;100807.44;5111841;28;20394;-68
2023/10/03 04:25:21;;;;;;;14.40;8.18;;;;;;;19.63;70.85;100812.75;5113112;28;20417;-68
2023/10/03 04:27:51;;;;;;;19.02;8.02;;;;;;;19.60;70.83;100809.38;5106106;28;20028;-68
2023/10/03 04:30:20;;;;;;;13.43;7.28;;;;;;;19.58;70.67;100822.13;5093761;28;20028;-68
2023/10/03 04:32:47;;;;;;;18.25;8.32;;;;;;;19.58;70.30;100820.16;5100235;28;20035;-68
2023/10/03 04:35:14;;;;;;;15.15;7.65;;;;;;;19.58;70.45;100827.75;5092789;28;20020;-68
2023/10/03 04:37:46;;;;;;;12.25;7.15;;;;;;;19.58;70.37;100819.31;5094262;28;20043;-68
2023/10/03 04:40:15;;;;;;;13.50;7.32;;;;;;;19.58;69.79;100819.31;5093756;28;20029;-69
2023/10/03 04:42:45;;;;;;;13.88;5.95;;;;;;;19.58;69.55;100822.13;5092174;28;20027;-68
2023/10/03 04:45:14;;;;;;;14.70;6.43;;;;;;;19.57;69.77;100820.44;5092588;28;20086;-68
2023/10/03 04:47:43;;;;;;;12.73;6.55;;;;;;;19.54;69.79;100829.53;5091744;28;20024;-69
2023/10/03 04:50:10;;;;;;;12.88;6.40;;;;;;;19.54;69.62;100837.97;5092168;28;20387;-68
2023/10/03 04:52:36;;;;;;;14.98;6.30;;;;;;;19.49;69.85;100838.06;5095464;28;20393;-69
2023/10/03 04:55:04;;;;;;;15.60;6.88;;;;;;;19.44;69.57;100835.38;5112234;28;20027;-68
2023/10/03 04:57:30;;;;;;;13.25;6.07;;;;;;;19.48;69.73;100845.69;5095181;28;20015;-69
2023/10/03 05:00:04;;;;;;;14.20;6.03;;;;;;;19.45;69.47;100851.09;5092472;28;20435;-70
2023/10/03 05:02:33;;;;;;;12.70;6.07;;;;;;;19.46;69.47;100841.53;5093845;28;20023;-69
2023/10/03 05:04:58;;;;;;;13.63;6.43;;;;;;;19.49;69.27;100835.25;5096581;28;20038;-69
2023/10/03 05:07:28;;;;;;;11.10;6.22;;;;;;;19.48;69.03;100842.88;5109847;28;20024;-69
2023/10/03 05:09:56;;;;;;;9.88;5.95;;;;;;;19.40;69.06;100856.84;5092146;28;20073;-69
2023/10/03 05:12:24;;;;;;;14.48;6.25;;;;;;;19.41;69.16;100872.56;5094617;28;20040;-69
2023/10/03 05:14:49;;;;;;;10.40;6.00;;;;;;;19.42;69.01;100879.91;5091069;28;20031;-69
2023/10/03 05:17:15;;;;;;;15.00;6.28;;;;;;;19.39;68.79;100884.16;5094417;28;20382;-69
2023/10/03 05:19:46;;;;;;;16.25;6.65;;;;;;;19.35;68.98;100895.22;5091521;28;20028;-69
2023/10/03 05:22:13;;;;;;;9.85;5.78;;;;;;;19.33;68.96;100900.28;5089293;28;20071;-69
2023/10/03 05:24:42;;;;;;;13.95;6.22;;;;;;;19.33;69.00;100899.47;5091372;28;20096;-69
2023/10/03 05:27:07;;;;;;;9.82;5.75;;;;;;;19.33;69.30;100877.78;5091496;28;20035;-68
2023/10/03 05:29:36;;;;;;;10.32;6.05;;;;;;;19.32;69.24;100859.22;5090617;28;20028;-69
2023/10/03 05:32:02;;;;;;;9.90;6.00;;;;;;;19.31;69.40;100859.56;5091295;28;20382;-69
2023/10/03 05:34:30;;;;;;;10.40;6.15;;;;;;;19.29;69.46;100859.84;5093816;28;20024;-69
2023/10/03 05:36:55;;;;;;;10.77;5.80;;;;;;;19.30;69.59;100860.72;5090422;28;20039;-69
2023/10/03 05:39:22;;;;;;;12.02;6.28;;;;;;;19.30;69.38;100858.72;5110083;28;20024;-69
2023/10/03 05:41:47;;;;;;;10.57;6.22;;;;;;;19.29;69.74;100885.19;5096129;28;20769;-69
2023/10/03 05:44:13;;;;;;;11.48;6.25;;;;;;;19.31;69.43;100882.91;5091285;28;20031;-69
2023/10/03 05:46:39;;;;;;;11.80;6.60;;;;;;;19.30;69.44;100883.22;5093930;28;20032;-69
2023/10/03 05:49:05;;;;;;;17.17;6.25;;;;;;;19.30;69.54;100883.22;5097339;28;20030;-68
2023/10/03 05:51:34;;;;;;;11.82;6.00;;;;;;;19.26;69.69;100874.56;5098738;28;20036;-68
2023/10/03 05:54:00;;;;;;;11.15;6.43;;;;;;;19.23;69.87;100874.34;5098854;28;20058;-68
2023/10/03 05:56:25;;;;;;;11.20;5.93;;;;;;;19.25;69.75;100886.13;5096228;28;20071;-68
2023/10/03 05:58:51;;;;;;;11.65;5.82;;;;;;;19.26;69.67;100870.94;5104602;28;20092;-69
2023/10/03 06:01:16;;;;;;;13.07;6.15;;;;;;;19.22;69.83;100886.75;5090395;28;20127;-68
2023/10/03 06:03:44;;;;;;;11.05;6.45;;;;;;;19.24;69.85;100876.00;5096736;28;20410;-69
2023/10/03 06:06:10;;;;;;;10.65;5.60;;;;;;;19.23;69.89;100891.22;5099096;28;20020;-64
2023/10/03 06:08:35;;;;;;;10.70;5.82;;;;;;;19.20;69.86;100897.47;5092893;28;20038;-69
2023/10/03 06:11:03;;;;;;;10.32;5.60;;;;;;;19.19;70.25;100888.22;5100033;28;20096;-69
2023/10/03 06:13:28;;;;;;;12.50;5.82;;;;;;;19.21;70.06;100891.53;5097440;28;20023;-66
2023/10/03 06:15:54;;;;;;;15.40;6.25;;;;;;;19.19;70.13;100891.03;5105320;28;20031;-66
2023/10/03 06:18:19;;;;;;;9.27;5.55;;;;;;;19.19;70.28;100896.66;5094649;28;20181;-66
2023/10/03 06:20:44;;;;;;;13.00;5.97;;;;;;;19.22;70.29;100896.03;5099416;28;20127;-66
2023/10/03 06:23:10;;;;;;;11.80;6.20;;;;;;;19.22;70.46;100912.91;5097799;28;20103;-66
2023/10/03 06:25:38;;;;;;;9.45;5.75;;;;;;;19.24;70.48;100906.97;5092285;28;20039;-67
2023/10/03 06:28:03;;;;;;;14.27;6.15;;;;;;;19.20;70.76;100911.53;5092185;28;20035;-64
2023/10/03 06:30:29;;;;;;;13.43;6.22;;;;;;;19.22;70.74;100921.34;5088907;28;20020;-71
2023/10/03 06:32:54;;;;;;;9.70;6.18;;;;;;;19.25;70.90;100917.06;5102495;28;20062;-67
2023/10/03 06:35:20;;;;;;;12.52;6.07;;;;;;;19.25;70.77;100920.72;5090214;28;20489;-67
2023/10/03 06:37:46;;;;;;;15.45;6.55;;;;;;;19.24;71.13;100927.50;5092033;28;20012;-66
2023/10/03 06:40:13;;;;;;;13.80;6.35;;;;;;;19.22;71.04;100926.16;5097818;28;20024;-69
2023/10/03 06:42:40;;;;;;;10.93;6.47;;;;;;;19.23;70.84;100917.38;5096295;28;20028;-69
2023/10/03 06:45:09;;;;;;;12.13;6.60;;;;;;;19.26;70.90;100927.19;5099385;28;20027;-70
2023/10/03 06:47:35;;;;;;;11.45;6.50;;;;;;;19.23;70.97;100930.63;5099894;28;20119;-69
2023/10/03 06:50:01;;;;;;;10.98;6.20;;;;;;;19.25;70.90;100939.59;5099731;28;20132;-66
2023/10/03 06:52:28;;;;;;;12.52;6.22;;;;;;;19.22;71.11;100943.88;5094058;28;20042;-68
2023/10/03 06:54:53;;;;;;;16.23;6.60;;;;;;;19.20;71.15;100956.56;5103812;28;20490;-68
2023/10/03 06:57:19;;;;;;;16.23;6.80;;;;;;;19.21;71.52;100956.25;5093727;28;20060;-68
2023/10/03 06:59:44;;;;;;;11.65;6.40;;;;;;;19.24;71.27;100969.72;5093782;28;20020;-68
2023/10/03 07:02:13;;;;;;;9.40;6.60;;;;;;;19.23;71.42;100964.41;5095157;28;20032;-67
2023/10/03 07:04:39;;;;;;;11.25;5.88;;;;;;;19.23;71.60;100956.78;5093883;28;20039;-68
2023/10/03 07:07:05;;;;;;;9.23;6.03;;;;;;;19.24;71.56;100969.72;5093604;28;20024;-68
2023/10/03 07:09:31;;;;;;;10.00;6.40;;;;;;;19.21;71.79;100959.06;5092570;28;20020;-68
2023/10/03 07:11:57;;;;;;;14.70;6.00;;;;;;;19.19;72.34;100964.19;5093347;28;20032;-68
2023/10/03 07:14:22;;;;;;;9.25;6.00;;;;;;;19.22;73.18;100963.56;5092756;28;20054;-68
2023/10/03 07:16:48;;;;;;;12.43;6.78;;;;;;;19.23;73.36;100967.22;5093071;28;20436;-68
2023/10/03 07:19:14;;;;;;;12.27;6.65;;;;;;;19.22;73.38;100971.19;5102378;28;20031;-68
2023/10/03 07:21:40;;;;;;;13.38;6.90;;;;;;;19.12;74.56;100978.63;5111732;28;20355;-68
2023/10/03 07:24:06;;;;;;;10.38;7.15;;;;;;;19.17;74.87;100983.34;5113431;28;20043;-68
2023/10/03 07:26:32;;;;;;;11.85;6.97;;;;;;;19.15;75.38;100974.38;5113316;28;20074;-68
2023/10/03 07:28:58;;;;;;;14.52;8.30;;;;;;;19.12;75.50;100975.81;5112799;28;20331;-68
2023/10/03 07:31:25;;;;;;;14.95;7.60;;;;;;;19.09;75.85;100968.00;5113607;28;20038;-68
2023/10/03 07:33:54;;;;;;;11.95;8.10;;;;;;;19.12;76.21;100975.00;5112193;28;20070;-67
2023/10/03 07:36:23;;;;;;;11.48;7.50;;;;;;;19.11;75.84;100976.97;5112757;28;20094;-68
2023/10/03 07:38:49;;;;;;;16.40;7.78;;;;;;;19.05;76.48;100977.34;5096606;28;20462;-68
2023/10/03 07:41:17;;;;;;;13.65;7.65;;;;;;;19.08;76.47;100983.22;5092483;28;20098;-68
2023/10/03 07:43:52;;;;;;;13.93;7.75;;;;;;;19.12;76.42;100984.25;5092108;28;20028;-67
2023/10/03 07:46:21;;;;;;;16.73;8.30;;;;;;;19.11;76.55;101002.28;5092784;28;20726;-68
2023/10/03 07:48:48;;;;;;;11.07;7.55;;;;;;;19.13;76.63;101013.22;5104473;28;20053;-67
2023/10/03 07:51:18;;;;;;;13.63;7.75;;;;;;;19.11;76.53;101015.53;5111390;28;20081;-68
2023/10/03 07:53:43;;;;;;;12.70;7.57;;;;;;;19.09;76.85;101029.06;5112624;28;20027;-68
2023/10/03 07:56:25;;;;;;;14.38;7.15;;;;;;;19.12;76.13;101020.00;5113047;28;20367;-68
2023/10/03 07:58:54;;;;;;;12.00;7.40;;;;;;;19.09;76.19;101009.34;5098097;28;20106;-69
2023/10/03 08:01:27;;;;;;;16.17;7.38;;;;;;;19.10;75.99;101003.44;5105126;28;20024;-68
2023/10/03 08:03:56;;;;;;;11.57;7.32;;;;;;;19.10;75.44;101025.13;5091748;28;20036;-68
2023/10/03 08:06:27;;;;;;;10.68;6.90;;;;;;;19.10;74.73;101025.13;5109410;28;20031;-68
2023/10/03 08:08:55;;;;;;;16.07;6.47;;;;;;;19.04;75.25;101038.41;5103344;28;20431;-69
2023/10/03 08:11:28;;;;;;;12.30;6.53;;;;;;;19.05;75.21;101040.06;5098137;28;20039;-69
2023/10/03 08:13:58;;;;;;;10.07;6.20;;;;;;;19.04;75.60;101082.59;5105334;28;20490;-68
2023/10/03 08:16:24;;;;;;;11.13;6.68;;;;;;;19.01;76.11;101063.50;5093242;28;20105;-67
2023/10/03 08:18:57;;;;;;;8.18;5.90;;;;;;;18.98;75.16;101061.28;5089772;28;20032;-67
2023/10/03 08:21:24;;;;;;;10.32;5.28;;;;;;;18.95;75.25;101084.44;5105891;28;20028;-67
2023/10/03 08:23:51;;;;;;;11.32;5.70;;;;;;;18.89;75.58;101098.53;5092286;28;20135;-69
2023/10/03 08:26:17;;;;;;;10.60;6.38;;;;;;;18.92;75.42;101096.28;5091047;28;20028;-68
2023/10/03 08:28:45;;;;;;;11.50;5.40;;;;;;;18.93;75.33;101093.16;5094941;28;20043;-68
2023/10/03 08:31:10;;;;;;;9.95;4.78;;;;;;;18.89;75.00;101089.28;5104804;28;20085;-69
2023/10/03 08:33:36;;;;;;;9.57;4.22;;;;;;;18.91;74.62;101105.88;5106402;28;20015;-67
2023/10/03 08:36:14;;;;;;;8.75;3.70;;;;;;;18.95;74.53;101104.13;5092170;28;20107;-69
2023/10/03 08:38:43;;;;;;;6.32;3.10;;;;;;;18.94;74.31;101108.06;5090746;28;20028;-68
2023/10/03 08:41:12;;;;;;;6.38;3.60;;;;;;;18.92;74.03;101121.59;5095096;28;20027;-63
2023/10/03 08:43:38;;;;;;;8.48;2.90;;;;;;;18.96;73.76;101119.84;5093623;28;20047;-66
2023/10/03 08:46:09;;;;;;;6.70;3.08;;;;;;;18.98;73.58;101124.03;5090770;28;20089;-67
2023/10/03 08:48:43;;;;;;;6.85;2.60;;;;;;;19.00;73.63;101137.78;5091712;28;20077;-67
2023/10/03 08:51:13;;;;;;;5.47;2.80;;;;;;;19.01;73.57;101139.47;5091998;28;20092;-66
2023/10/03 08:53:40;;;;;;;7.88;2.53;;;;;;;18.98;73.60;101140.06;5091630;28;20416;-66
2023/10/03 08:56:08;;;;;;;6.28;2.03;;;;;;;18.95;72.94;101149.13;5091972;28;20024;-65
2023/10/03 08:58:39;;;;;;;7.57;2.22;;;;;;;18.96;73.19;101159.22;5090216;28;20340;-65
2023/10/03 09:01:07;;;;;;;9.05;1.95;;;;;;;18.94;72.50;101159.50;5091442;28;20031;-65
2023/10/03 09:03:47;;;;;;;6.15;1.92;;;;;;;18.91;72.55;101171.41;5093648;28;20103;-66
2023/10/03 09:06:19;;;;;;;2.75;1.00;;;;;;;18.81;71.59;101185.56;5104467;28;20023;-67
2023/10/03 09:09:41;;;;;;;;;;;;;;;18.89;71.12;101190.53;5109751;28;20142;-66
2023/10/03 09:11:44;;;;;;;1.90;0.90;;;;;;;18.61;71.73;101201.53;5100721;28;19916;-67
2023/10/03 09:14:22;;;;;;;3.08;0.80;;;;;;;18.64;71.48;101194.47;5093395;28;20532;-67
2023/10/03 09:16:51;;;;;;;2.97;0.82;;;;;;;18.69;71.25;101204.81;5091577;28;20052;-67
2023/10/03 09:19:26;;;;;;;4.15;1.02;;;;;;;18.69;71.90;101222.53;5091298;28;20032;-67
2023/10/03 09:21:52;;;;;;;2.00;0.80;;;;;;;18.74;72.18;101230.09;5092015;28;20115;-67
2023/10/03 09:24:22;;;;;;;3.50;1.10;;;;;;;18.72;72.55;101246.44;5091739;28;20047;-67
2023/10/03 09:27:07;;;;;;;2.88;1.10;;;;;;;18.75;72.61;101243.03;5090157;28;20159;-66
2023/10/03 09:29:33;;;;;;;2.10;1.02;;;;;;;18.76;72.12;101245.53;5089442;28;20055;-67
2023/10/03 09:32:12;;;;;;;2.72;1.08;;;;;;;18.73;71.73;101256.53;5091338;28;20146;-65
2023/10/03 09:34:45;;;;;;;5.55;1.38;;;;;;;18.72;71.47;101261.31;5091090;28;20027;-66
2023/10/03 09:37:11;;;;;;;5.72;1.10;;;;;;;18.73;71.40;101260.19;5091185;28;20550;-66
2023/10/03 09:39:49;;;;;;;3.20;1.15;;;;;;;18.68;71.83;101256.56;5098788;28;20118;-67
2023/10/03 09:42:16;;;;;;;2.88;1.00;;;;;;;18.65;71.90;101263.63;5096958;28;20447;-67
2023/10/03 09:44:51;;;;;;;4.57;1.27;;;;;;;18.65;71.82;101255.19;5107272;28;20076;-67
2023/10/03 09:47:18;;;;;;;2.60;1.38;;;;;;;18.61;71.58;101259.72;5092685;28;20487;-66
2023/10/03 09:49:44;;;;;;;4.32;1.10;;;;;;;18.67;71.58;101261.38;5108846;28;20019;-66
2023/10/03 09:52:26;;;;;;;5.13;1.20;;;;;;;18.59;72.19;101276.06;5110615;28;20062;-67
2023/10/03 09:54:59;;;;;;;4.03;1.20;;;;;;;18.59;72.49;101279.72;5102426;28;20031;-68
2023/10/03 09:57:28;;;;;;;3.97;1.30;;;;;;;18.61;72.78;101279.41;5099665;28;20776;-67
2023/10/03 09:59:55;;;;;;;4.22;1.00;;;;;;;18.51;72.00;101287.94;5089479;28;20687;-67
2023/10/03 10:02:30;;;;;;;5.13;1.08;;;;;;;18.54;71.46;101279.75;5094112;28;20538;-67
2023/10/03 10:05:01;;;;;;;4.47;1.33;;;;;;;18.59;71.77;101281.69;5090525;28;20028;-67
2023/10/03 10:07:39;;;;;;;4.65;1.02;;;;;;;18.63;71.86;101303.28;5091903;28;20071;-66
2023/10/03 10:10:10;;;;;;;5.20;1.33;;;;;;;18.65;72.09;101315.06;5095774;28;20028;-67
2023/10/03 10:12:43;;;;;;;4.93;1.20;;;;;;;18.70;71.79;101302.94;5095579;28;20036;-68
2023/10/03 10:17:51;;;;;;;2.47;1.02;;;;;;;18.54;70.18;101316.28;5093811;28;20485;-68
2023/10/03 10:20:17;;;;;;;6.43;1.15;;;;;;;18.46;69.40;101345.03;5093705;28;20032;-69
2023/10/03 10:23:12;;;;;;;4.63;1.25;;;;;;;18.40;70.73;101343.41;5093143;28;20067;-68
2023/10/03 10:25:42;;;;;;;5.78;1.40;;;;;;;18.33;71.36;101349.38;5098425;28;20046;-67
2023/10/03 10:28:10;;;;;;;4.20;1.25;;;;;;;18.34;72.46;101367.91;5099377;28;20040;-67
2023/10/03 10:30:39;;;;;;;4.85;1.48;;;;;;;18.33;72.61;101360.59;5096119;28;20057;-67
2023/10/03 10:33:17;;;;;;;2.75;1.30;;;;;;;18.28;72.48;101362.63;5099447;28;20027;-66
2023/10/03 10:35:49;;;;;;;7.15;1.40;;;;;;;18.20;72.76;101358.47;5102714;28;20051;-68
2023/10/03 10:38:17;;;;;;;2.70;1.10;;;;;;;18.32;73.13;101360.91;5109507;28;20051;-68
2023/10/03 10:44:08;;;;;;;6.82;1.35;;;;;;;18.49;72.97;101380.16;5103965;28;20467;-67
2023/10/03 10:46:38;;;;;;;3.63;1.20;;;;;;;18.46;72.62;101383.56;5101586;28;20035;-67
2023/10/03 10:49:06;;;;;;;2.47;1.27;;;;;;;18.47;72.61;101386.09;5094665;28;20024;-67
2023/10/03 10:51:36;;;;;;;3.22;0.80;;;;;;;18.49;71.30;101388.59;5092319;28;20055;-67
2023/10/03 10:54:02;;;;;;;2.72;1.05;;;;;;;18.54;71.04;101400.63;5100379;28;20055;-67
2023/10/03 10:56:28;;;;;;;1.95;0.70;;;;;;;18.44;70.30;101389.47;5112211;28;20035;-67
2023/10/03 10:59:07;;;;;;;3.75;0.60;;;;;;;18.43;71.33;101385.00;5093825;28;20032;-68
2023/10/03 11:01:43;;;;;;;3.58;0.90;;;;;;;18.46;72.25;101403.22;5094034;28;20032;-68
2023/10/03 11:04:23;;;;;;;1.10;0.50;;;;;;;18.49;72.12;101413.91;5096573;28;20368;-69
2023/10/03 11:06:52;;;;;;;2.95;0.70;;;;;;;18.40;71.50;101414.53;5101615;28;20092;-67
2023/10/03 11:09:20;;;;;;;1.83;0.80;;;;;;;18.40;71.88;101422.13;5108086;28;20043;-68
2023/10/03 11:11:46;;;;;;;2.90;0.85;;;;;;;18.44;72.36;101411.13;5097531;28;20024;-66
2023/10/03 11:14:11;;;;;;;2.70;1.13;;;;;;;18.45;72.75;101421.22;5091058;28;20035;-73
2023/10/03 11:16:42;;;;;;;3.22;0.70;;;;;;;18.42;72.69;101416.19;5103108;28;20036;-67
2023/10/03 11:19:07;;;;;;;1.25;0.50;;;;;;;18.46;72.62;101411.66;5108773;28;20049;-67
2023/10/03 11:21:33;;;;;;;0.77;0.63;;;;;;;18.36;72.91;101418.22;5096090;28;20517;-70
2023/10/03 11:24:38;;;;;;;1.13;0.85;;;;;;;18.31;72.57;101416.28;5099909;28;20060;-72
2023/10/03 11:27:06;;;;;;;1.17;0.63;;;;;;;18.30;73.00;101423.00;5020715;28;20041;-72
2023/10/03 11:29:39;;;;;;;3.22;0.80;;;;;;;18.38;72.21;101421.56;5085206;28;20394;-72
2023/10/03 11:32:06;;;;;;;1.45;0.80;;;;;;;18.38;71.91;101421.56;5099341;28;20040;-73
2023/10/03 11:34:34;;;;;;;2.95;0.95;;;;;;;18.40;71.65;101441.78;5107207;28;20027;-72
2023/10/03 11:37:03;;;;;;;1.77;0.88;;;;;;;18.46;71.50;101434.16;5094754;28;20110;-70
2023/10/03 11:39:28;;;;;;;4.32;1.10;;;;;;;18.49;71.52;101434.41;5094025;28;20077;-73
2023/10/03 11:41:56;;;;;;;2.72;0.98;;;;;;;18.51;71.34;101446.22;5100670;28;20769;-72
2023/10/03 11:44:25;;;;;;;4.53;1.20;;;;;;;18.42;70.72;101439.50;5092569;28;20036;-71